Terminal Aerodrome Forecast
Issued by NWS Northern Indiana

Home | Current Version | Previous Version | Text Only | Print | Product List | Glossary On
Versions: 1 2 3 4 5 6 7 8 9 10 11 12 13
000
FTUS43 KIWX 070520
TAFFWA
TAF
KFWA 070520Z 0706/0806 19010KT 6SM HZ OVC250
     FM071200 22012KT 5SM -SHRA BR BKN030
     FM071400 23014KT 4SM -SHRA VCTS BKN015CB
     FM071900 33010KT 2SM -RA BR OVC008
     FM072200 33012G18KT P6SM BKN015
     FM080100 02007KT 5SM BR BKN035=

USA.gov is the U.S. government's official web portal to all federal, state and local government web resources and services.